sensor_id;sensor_type;location;lat;lon;timestamp;pressure;altitude;pressure_sealevel;temperature;humidity
29733;BME280;16643;43.158;25.302;2022-09-09T00:04:35;98035.53;;;22.09;51.55
29733;BME280;16643;43.158;25.302;2022-09-09T00:07:43;98041.56;;;22.00;51.15
29733;BME280;16643;43.158;25.302;2022-09-09T00:10:29;97966.25;;;21.47;51.68
29733;BME280;16643;43.158;25.302;2022-09-09T00:13:04;98033.66;;;21.77;52.28
29733;BME280;16643;43.158;25.302;2022-09-09T00:18:31;98037.38;;;21.74;51.40
29733;BME280;16643;43.158;25.302;2022-09-09T00:21:11;98025.84;;;21.75;53.09
29733;BME280;16643;43.158;25.302;2022-09-09T00:23:40;97999.59;;;21.61;53.06
29733;BME280;16643;43.158;25.302;2022-09-09T00:29:20;98046.91;;;21.77;52.51
29733;BME280;16643;43.158;25.302;2022-09-09T00:31:41;97967.06;;;21.36;53.25
29733;BME280;16643;43.158;25.302;2022-09-09T00:34:18;98048.22;;;21.93;52.13
29733;BME280;16643;43.158;25.302;2022-09-09T00:36:45;98046.81;;;21.89;52.44
29733;BME280;16643;43.158;25.302;2022-09-09T00:41:50;98044.72;;;21.70;53.03
29733;BME280;16643;43.158;25.302;2022-09-09T00:44:30;97992.78;;;21.34;53.26
29733;BME280;16643;43.158;25.302;2022-09-09T00:50:37;98043.00;;;21.58;53.41
29733;BME280;16643;43.158;25.302;2022-09-09T00:58:24;98038.53;;;21.59;53.16
29733;BME280;16643;43.158;25.302;2022-09-09T01:00:53;98035.78;;;21.60;53.32
29733;BME280;16643;43.158;25.302;2022-09-09T01:03:37;98030.81;;;21.45;53.78
29733;BME280;16643;43.158;25.302;2022-09-09T01:17:05;98005.38;;;21.20;53.93
29733;BME280;16643;43.158;25.302;2022-09-09T01:27:40;98028.38;;;21.30;54.46
29733;BME280;16643;43.158;25.302;2022-09-09T01:30:13;97989.88;;;21.02;54.72
29733;BME280;16643;43.158;25.302;2022-09-09T01:32:47;97976.56;;;20.80;55.44
29733;BME280;16643;43.158;25.302;2022-09-09T01:35:39;98028.69;;;21.02;55.87
29733;BME280;16643;43.158;25.302;2022-09-09T01:38:09;98013.66;;;21.02;55.77
29733;BME280;16643;43.158;25.302;2022-09-09T01:40:35;98030.66;;;21.11;56.11
29733;BME280;16643;43.158;25.302;2022-09-09T01:43:02;97997.31;;;20.97;55.58
29733;BME280;16643;43.158;25.302;2022-09-09T01:45:29;97952.41;;;20.74;55.27
29733;BME280;16643;43.158;25.302;2022-09-09T01:47:55;97979.38;;;20.90;55.91
29733;BME280;16643;43.158;25.302;2022-09-09T01:50:22;98014.94;;;21.10;56.04
29733;BME280;16643;43.158;25.302;2022-09-09T01:52:51;97985.88;;;20.86;56.20
29733;BME280;16643;43.158;25.302;2022-09-09T01:55:33;97991.63;;;20.91;56.19
29733;BME280;16643;43.158;25.302;2022-09-09T01:58:28;97997.91;;;21.01;56.13
29733;BME280;16643;43.158;25.302;2022-09-09T02:01:17;97968.31;;;20.85;56.08
29733;BME280;16643;43.158;25.302;2022-09-09T02:03:56;97986.13;;;20.94;55.71
29733;BME280;16643;43.158;25.302;2022-09-09T02:06:35;98008.44;;;21.14;55.78
29733;BME280;16643;43.158;25.302;2022-09-09T02:09:05;97978.47;;;21.02;55.55
29733;BME280;16643;43.158;25.302;2022-09-09T02:11:32;97985.66;;;21.00;55.46
29733;BME280;16643;43.158;25.302;2022-09-09T02:14:12;97975.56;;;20.94;56.10
29733;BME280;16643;43.158;25.302;2022-09-09T02:16:56;97945.66;;;20.70;55.75
29733;BME280;16643;43.158;25.302;2022-09-09T02:19:34;97992.75;;;20.99;55.79
29733;BME280;16643;43.158;25.302;2022-09-09T02:22:01;97994.56;;;20.99;55.85
29733;BME280;16643;43.158;25.302;2022-09-09T02:24:29;97962.03;;;20.75;56.24
29733;BME280;16643;43.158;25.302;2022-09-09T02:26:57;97991.16;;;20.86;56.75
29733;BME280;16643;43.158;25.302;2022-09-09T02:29:29;97993.38;;;20.79;56.72
29733;BME280;16643;43.158;25.302;2022-09-09T02:32:01;97924.13;;;20.39;56.43
29733;BME280;16643;43.158;25.302;2022-09-09T02:34:31;97962.34;;;20.70;56.56
29733;BME280;16643;43.158;25.302;2022-09-09T02:36:59;97971.63;;;20.76;56.71
29733;BME280;16643;43.158;25.302;2022-09-09T02:39:26;97920.19;;;20.45;56.61
29733;BME280;16643;43.158;25.302;2022-09-09T02:41:52;97960.56;;;20.71;56.50
29733;BME280;16643;43.158;25.302;2022-09-09T02:44:18;97949.75;;;20.74;56.30
29733;BME280;16643;43.158;25.302;2022-09-09T02:50:02;97978.09;;;20.95;56.02
29733;BME280;16643;43.158;25.302;2022-09-09T02:55:14;97985.31;;;21.05;56.06
29733;BME280;16643;43.158;25.302;2022-09-09T02:57:43;97951.16;;;20.66;57.21
29733;BME280;16643;43.158;25.302;2022-09-09T03:00:12;97973.13;;;20.67;57.58
29733;BME280;16643;43.158;25.302;2022-09-09T03:02:38;97990.06;;;20.88;57.93
29733;BME280;16643;43.158;25.302;2022-09-09T03:05:05;97984.84;;;20.76;58.16
29733;BME280;16643;43.158;25.302;2022-09-09T03:07:31;97952.84;;;20.67;58.19
29733;BME280;16643;43.158;25.302;2022-09-09T03:09:57;97981.59;;;20.72;57.56
29733;BME280;16643;43.158;25.302;2022-09-09T03:12:23;97977.78;;;20.76;56.65
29733;BME280;16643;43.158;25.302;2022-09-09T03:14:49;97935.19;;;20.68;55.71
29733;BME280;16643;43.158;25.302;2022-09-09T03:17:15;98006.69;;;21.25;55.35
29733;BME280;16643;43.158;25.302;2022-09-09T03:19:42;97975.00;;;21.13;55.03
29733;BME280;16643;43.158;25.302;2022-09-09T03:22:09;97967.88;;;21.02;55.77
29733;BME280;16643;43.158;25.302;2022-09-09T03:24:35;97997.38;;;21.09;55.85
29733;BME280;16643;43.158;25.302;2022-09-09T03:27:01;97948.94;;;20.73;55.90
29733;BME280;16643;43.158;25.302;2022-09-09T03:29:26;97939.53;;;20.69;55.75
29733;BME280;16643;43.158;25.302;2022-09-09T03:31:52;97966.00;;;20.80;56.12
29733;BME280;16643;43.158;25.302;2022-09-09T03:34:18;97952.94;;;20.66;56.49
29733;BME280;16643;43.158;25.302;2022-09-09T03:36:43;97965.72;;;20.72;56.38
29733;BME280;16643;43.158;25.302;2022-09-09T03:39:09;97978.09;;;20.95;56.31
29733;BME280;16643;43.158;25.302;2022-09-09T03:41:35;97931.75;;;20.55;56.87
29733;BME280;16643;43.158;25.302;2022-09-09T03:44:02;97974.28;;;20.76;57.36
29733;BME280;16643;43.158;25.302;2022-09-09T03:46:28;97983.53;;;20.81;56.75
29733;BME280;16643;43.158;25.302;2022-09-09T03:48:54;97959.81;;;20.69;56.56
29733;BME280;16643;43.158;25.302;2022-09-09T03:51:20;97981.78;;;20.93;56.13
29733;BME280;16643;43.158;25.302;2022-09-09T03:53:47;97951.94;;;20.80;55.88
29733;BME280;16643;43.158;25.302;2022-09-09T03:56:13;97986.03;;;20.95;56.02
29733;BME280;16643;43.158;25.302;2022-09-09T03:58:39;97993.22;;;20.93;56.59
29733;BME280;16643;43.158;25.302;2022-09-09T04:01:07;98006.47;;;21.05;56.51
29733;BME280;16643;43.158;25.302;2022-09-09T04:03:34;98004.06;;;21.01;56.51
29733;BME280;16643;43.158;25.302;2022-09-09T04:06:01;97982.47;;;20.84;56.14
29733;BME280;16643;43.158;25.302;2022-09-09T04:08:28;97985.41;;;20.92;57.11
29733;BME280;16643;43.158;25.302;2022-09-09T04:10:56;97970.69;;;20.77;57.35
29733;BME280;16643;43.158;25.302;2022-09-09T04:13:23;97979.47;;;20.88;55.58
29733;BME280;16643;43.158;25.302;2022-09-09T04:15:57;98007.25;;;21.18;56.04
29733;BME280;16643;43.158;25.302;2022-09-09T04:18:24;98005.91;;;21.12;56.05
29733;BME280;16643;43.158;25.302;2022-09-09T04:20:52;98014.16;;;21.20;56.36
29733;BME280;16643;43.158;25.302;2022-09-09T04:23:18;97981.41;;;21.10;54.33
29733;BME280;16643;43.158;25.302;2022-09-09T04:25:49;98001.31;;;21.27;55.90
29733;BME280;16643;43.158;25.302;2022-09-09T04:28:15;97983.41;;;21.30;53.86
29733;BME280;16643;43.158;25.302;2022-09-09T04:30:42;97964.50;;;21.24;55.23
29733;BME280;16643;43.158;25.302;2022-09-09T04:33:08;97944.38;;;21.10;55.08
29733;BME280;16643;43.158;25.302;2022-09-09T04:35:38;98020.03;;;21.59;54.26
29733;BME280;16643;43.158;25.302;2022-09-09T04:38:05;97964.78;;;21.32;56.54
29733;BME280;16643;43.158;25.302;2022-09-09T04:40:33;97968.50;;;21.29;55.52
29733;BME280;16643;43.158;25.302;2022-09-09T04:43:00;97975.38;;;21.43;53.60
29733;BME280;16643;43.158;25.302;2022-09-09T04:45:26;97989.34;;;21.67;52.63
29733;BME280;16643;43.158;25.302;2022-09-09T04:47:52;97987.84;;;21.87;52.13
29733;BME280;16643;43.158;25.302;2022-09-09T04:50:19;97977.72;;;21.92;52.14
29733;BME280;16643;43.158;25.302;2022-09-09T04:52:45;97989.19;;;22.04;51.75
29733;BME280;16643;43.158;25.302;2022-09-09T04:55:11;98002.06;;;22.20;51.81
29733;BME280;16643;43.158;25.302;2022-09-09T04:57:38;97975.94;;;22.15;51.12
29733;BME280;16643;43.158;25.302;2022-09-09T05:00:05;97990.13;;;22.36;51.51
29733;BME280;16643;43.158;25.302;2022-09-09T05:02:30;97976.28;;;22.33;51.58
29733;BME280;16643;43.158;25.302;2022-09-09T05:04:58;97967.97;;;22.37;51.00
29733;BME280;16643;43.158;25.302;2022-09-09T05:07:24;97975.16;;;22.46;50.81
29733;BME280;16643;43.158;25.302;2022-09-09T05:09:51;98008.16;;;22.76;50.32
29733;BME280;16643;43.158;25.302;2022-09-09T05:12:17;97995.09;;;22.73;50.47
29733;BME280;16643;43.158;25.302;2022-09-09T05:14:43;98002.09;;;22.85;50.55
29733;BME280;16643;43.158;25.302;2022-09-09T05:17:10;98004.69;;;22.96;50.22
29733;BME280;16643;43.158;25.302;2022-09-09T05:19:36;97998.06;;;23.02;49.77
29733;BME280;16643;43.158;25.302;2022-09-09T05:22:02;98024.50;;;23.24;49.87
29733;BME280;16643;43.158;25.302;2022-09-09T05:24:28;97993.56;;;23.13;50.40
29733;BME280;16643;43.158;25.302;2022-09-09T05:26:54;97985.06;;;23.20;49.55
29733;BME280;16643;43.158;25.302;2022-09-09T05:29:23;97993.22;;;23.28;49.73
29733;BME280;16643;43.158;25.302;2022-09-09T05:31:48;97990.13;;;23.43;49.26
29733;BME280;16643;43.158;25.302;2022-09-09T05:34:14;97955.47;;;23.35;48.80
29733;BME280;16643;43.158;25.302;2022-09-09T05:36:40;97955.09;;;23.49;48.43
29733;BME280;16643;43.158;25.302;2022-09-09T05:39:05;97975.78;;;23.67;49.96
29733;BME280;16643;43.158;25.302;2022-09-09T05:41:31;97979.13;;;23.89;49.70
29733;BME280;16643;43.158;25.302;2022-09-09T05:43:58;98003.41;;;24.15;49.96
29733;BME280;16643;43.158;25.302;2022-09-09T05:46:29;97972.16;;;23.98;49.22
29733;BME280;16643;43.158;25.302;2022-09-09T05:48:55;97940.22;;;23.79;48.57
29733;BME280;16643;43.158;25.302;2022-09-09T05:51:24;98003.41;;;24.36;49.41
29733;BME280;16643;43.158;25.302;2022-09-09T05:53:50;97976.81;;;24.36;48.86
29733;BME280;16643;43.158;25.302;2022-09-09T05:56:21;98003.59;;;24.64;48.02
29733;BME280;16643;43.158;25.302;2022-09-09T05:58:49;97932.59;;;24.26;47.96
29733;BME280;16643;43.158;25.302;2022-09-09T06:01:33;97994.72;;;24.93;48.35
29733;BME280;16643;43.158;25.302;2022-09-09T06:03:59;97915.31;;;24.60;47.90
29733;BME280;16643;43.158;25.302;2022-09-09T06:06:35;97970.78;;;25.03;45.92
29733;BME280;16643;43.158;25.302;2022-09-09T06:09:03;97989.25;;;25.33;45.99
29733;BME280;16643;43.158;25.302;2022-09-09T06:11:33;97971.31;;;25.36;45.75
29733;BME280;16643;43.158;25.302;2022-09-09T06:14:01;97956.59;;;25.41;45.46
29733;BME280;16643;43.158;25.302;2022-09-09T06:16:29;97943.41;;;25.49;44.81
29733;BME280;16643;43.158;25.302;2022-09-09T06:18:56;97963.41;;;25.82;45.47
29733;BME280;16643;43.158;25.302;2022-09-09T06:21:24;97908.34;;;25.63;44.45
29733;BME280;16643;43.158;25.302;2022-09-09T06:23:50;97959.44;;;25.96;43.62
29733;BME280;16643;43.158;25.302;2022-09-09T06:26:20;97999.81;;;26.38;42.80
29733;BME280;16643;43.158;25.302;2022-09-09T06:28:47;97964.88;;;26.31;43.41
29733;BME280;16643;43.158;25.302;2022-09-09T06:31:18;97967.31;;;26.52;43.13
29733;BME280;16643;43.158;25.302;2022-09-09T06:33:52;97987.69;;;26.89;42.04
29733;BME280;16643;43.158;25.302;2022-09-09T06:36:20;97959.66;;;27.02;41.71
29733;BME280;16643;43.158;25.302;2022-09-09T06:38:47;97975.28;;;27.33;41.36
29733;BME280;16643;43.158;25.302;2022-09-09T06:41:15;97967.25;;;27.51;40.53
29733;BME280;16643;43.158;25.302;2022-09-09T06:43:41;97967.47;;;27.83;39.82
29733;BME280;16643;43.158;25.302;2022-09-09T06:48:36;97980.63;;;28.36;38.96
29733;BME280;16643;43.158;25.302;2022-09-09T06:51:19;97997.75;;;28.43;38.84
29733;BME280;16643;43.158;25.302;2022-09-09T06:53:49;98007.56;;;28.77;39.24
29733;BME280;16643;43.158;25.302;2022-09-09T06:56:26;98006.66;;;29.10;39.08
29733;BME280;16643;43.158;25.302;2022-09-09T06:58:55;97975.00;;;29.14;36.55
29733;BME280;16643;43.158;25.302;2022-09-09T07:01:24;97999.81;;;29.40;37.27
29733;BME280;16643;43.158;25.302;2022-09-09T07:03:53;97982.06;;;29.39;36.95
29733;BME280;16643;43.158;25.302;2022-09-09T07:06:24;98008.19;;;29.53;36.68
29733;BME280;16643;43.158;25.302;2022-09-09T07:08:52;97958.41;;;29.26;36.78
29733;BME280;16643;43.158;25.302;2022-09-09T07:11:20;97978.72;;;29.53;35.82
29733;BME280;16643;43.158;25.302;2022-09-09T07:13:46;98001.94;;;29.93;36.22
29733;BME280;16643;43.158;25.302;2022-09-09T07:16:14;97985.84;;;29.93;36.56
29733;BME280;16643;43.158;25.302;2022-09-09T07:18:41;98002.63;;;30.04;36.59
29733;BME280;16643;43.158;25.302;2022-09-09T07:21:08;97986.84;;;30.09;36.75
29733;BME280;16643;43.158;25.302;2022-09-09T07:23:34;97976.28;;;30.07;36.28
29733;BME280;16643;43.158;25.302;2022-09-09T07:26:17;97952.81;;;29.93;35.90
29733;BME280;16643;43.158;25.302;2022-09-09T07:28:45;97984.47;;;30.14;36.16
29733;BME280;16643;43.158;25.302;2022-09-09T07:31:16;97960.31;;;30.22;35.51
29733;BME280;16643;43.158;25.302;2022-09-09T07:33:43;97983.97;;;30.65;34.37
29733;BME280;16643;43.158;25.302;2022-09-09T07:36:13;98005.78;;;30.93;35.50
29733;BME280;16643;43.158;25.302;2022-09-09T07:38:45;98009.72;;;31.05;34.88
29733;BME280;16643;43.158;25.302;2022-09-09T07:41:16;97992.16;;;30.95;34.02
29733;BME280;16643;43.158;25.302;2022-09-09T07:43:44;98013.88;;;31.16;34.08
29733;BME280;16643;43.158;25.302;2022-09-09T07:46:12;97996.66;;;31.11;35.40
29733;BME280;16643;43.158;25.302;2022-09-09T07:48:45;97972.94;;;31.06;36.17
29733;BME280;16643;43.158;25.302;2022-09-09T07:51:15;97986.00;;;31.17;35.74
29733;BME280;16643;43.158;25.302;2022-09-09T07:53:50;97978.50;;;31.04;35.35
29733;BME280;16643;43.158;25.302;2022-09-09T07:56:17;97995.13;;;31.31;35.81
29733;BME280;16643;43.158;25.302;2022-09-09T07:58:47;97965.66;;;31.23;35.22
29733;BME280;16643;43.158;25.302;2022-09-09T08:01:17;97978.84;;;31.10;34.96
29733;BME280;16643;43.158;25.302;2022-09-09T08:03:46;97972.50;;;31.02;34.96
29733;BME280;16643;43.158;25.302;2022-09-09T08:06:12;98025.88;;;31.51;34.45
29733;BME280;16643;43.158;25.302;2022-09-09T08:08:40;97962.31;;;31.21;35.17
29733;BME280;16643;43.158;25.302;2022-09-09T08:11:12;97967.50;;;31.22;35.38
29733;BME280;16643;43.158;25.302;2022-09-09T08:13:40;97982.06;;;31.28;35.01
29733;BME280;16643;43.158;25.302;2022-09-09T08:16:15;97998.50;;;31.33;35.33
29733;BME280;16643;43.158;25.302;2022-09-09T08:18:41;97947.53;;;31.17;35.33
29733;BME280;16643;43.158;25.302;2022-09-09T08:21:17;97992.28;;;31.32;35.49
29733;BME280;16643;43.158;25.302;2022-09-09T08:23:44;97933.00;;;31.11;35.93
29733;BME280;16643;43.158;25.302;2022-09-09T08:26:19;97914.50;;;31.08;35.76
29733;BME280;16643;43.158;25.302;2022-09-09T08:28:50;97952.31;;;31.29;35.32
29733;BME280;16643;43.158;25.302;2022-09-09T08:31:19;97972.94;;;31.52;35.26
29733;BME280;16643;43.158;25.302;2022-09-09T08:33:46;97949.69;;;31.44;34.63
29733;BME280;16643;43.158;25.302;2022-09-09T08:36:15;97929.97;;;31.29;35.36
29733;BME280;16643;43.158;25.302;2022-09-09T08:38:47;97970.44;;;31.50;35.52
29733;BME280;16643;43.158;25.302;2022-09-09T08:41:39;97979.72;;;31.85;34.69
29733;BME280;16643;43.158;25.302;2022-09-09T08:50:00;97938.53;;;31.70;34.07
29733;BME280;16643;43.158;25.302;2022-09-09T08:52:30;97972.78;;;32.05;34.55
29733;BME280;16643;43.158;25.302;2022-09-09T08:55:12;97958.50;;;32.20;33.51
29733;BME280;16643;43.158;25.302;2022-09-09T08:57:41;97956.00;;;32.33;33.15
29733;BME280;16643;43.158;25.302;2022-09-09T09:00:10;97924.53;;;32.04;31.75
29733;BME280;16643;43.158;25.302;2022-09-09T09:02:58;97964.25;;;32.46;32.72
29733;BME280;16643;43.158;25.302;2022-09-09T09:05:49;97923.66;;;32.47;33.19
29733;BME280;16643;43.158;25.302;2022-09-09T09:08:40;97958.00;;;32.60;32.05
29733;BME280;16643;43.158;25.302;2022-09-09T09:11:08;97887.78;;;32.11;32.56
29733;BME280;16643;43.158;25.302;2022-09-09T09:13:57;97944.91;;;32.57;32.23
29733;BME280;16643;43.158;25.302;2022-09-09T09:16:27;97963.28;;;32.83;30.83
29733;BME280;16643;43.158;25.302;2022-09-09T09:18:54;97934.25;;;32.85;30.94
29733;BME280;16643;43.158;25.302;2022-09-09T09:21:59;97913.84;;;32.97;32.02
29733;BME280;16643;43.158;25.302;2022-09-09T09:27:15;97951.38;;;33.63;30.73
29733;BME280;16643;43.158;25.302;2022-09-09T09:29:43;97945.16;;;33.62;29.78
29733;BME280;16643;43.158;25.302;2022-09-09T09:32:17;97863.59;;;33.32;30.53
29733;BME280;16643;43.158;25.302;2022-09-09T09:34:50;97927.38;;;33.74;30.63
29733;BME280;16643;43.158;25.302;2022-09-09T09:37:26;97895.75;;;33.34;29.79
29733;BME280;16643;43.158;25.302;2022-09-09T09:39:53;97918.28;;;33.54;30.26
29733;BME280;16643;43.158;25.302;2022-09-09T09:42:19;97948.13;;;33.74;30.14
29733;BME280;16643;43.158;25.302;2022-09-09T09:44:45;97895.66;;;33.48;29.58
29733;BME280;16643;43.158;25.302;2022-09-09T09:47:22;97942.38;;;33.56;29.24
29733;BME280;16643;43.158;25.302;2022-09-09T09:49:52;97904.31;;;33.44;30.42
29733;BME280;16643;43.158;25.302;2022-09-09T09:52:23;97943.31;;;33.69;30.13
29733;BME280;16643;43.158;25.302;2022-09-09T09:54:49;97912.41;;;33.72;30.06
29733;BME280;16643;43.158;25.302;2022-09-09T09:57:16;97938.81;;;33.76;28.80
29733;BME280;16643;43.158;25.302;2022-09-09T09:59:43;97912.28;;;33.80;29.38
29733;BME280;16643;43.158;25.302;2022-09-09T10:02:18;97880.16;;;33.85;30.33
29733;BME280;16643;43.158;25.302;2022-09-09T10:04:45;97899.34;;;34.10;29.56
29733;BME280;16643;43.158;25.302;2022-09-09T10:07:22;97878.19;;;34.07;29.63
29733;BME280;16643;43.158;25.302;2022-09-09T10:09:55;97924.72;;;34.56;29.44
29733;BME280;16643;43.158;25.302;2022-09-09T10:14:58;97932.94;;;34.76;29.27
29733;BME280;16643;43.158;25.302;2022-09-09T10:20:18;97943.28;;;34.73;29.56
29733;BME280;16643;43.158;25.302;2022-09-09T10:22:51;97906.13;;;34.34;29.55
29733;BME280;16643;43.158;25.302;2022-09-09T10:28:58;97913.06;;;34.49;28.64
29733;BME280;16643;43.158;25.302;2022-09-09T10:32:22;97929.03;;;34.44;29.03
29733;BME280;16643;43.158;25.302;2022-09-09T10:42:31;97898.94;;;34.54;28.70
29733;BME280;16643;43.158;25.302;2022-09-09T10:45:18;97886.28;;;34.61;27.60
29733;BME280;16643;43.158;25.302;2022-09-09T10:48:10;97912.91;;;34.71;29.18
29733;BME280;16643;43.158;25.302;2022-09-09T10:50:49;97917.13;;;34.80;29.04
29733;BME280;16643;43.158;25.302;2022-09-09T10:56:12;97876.94;;;34.70;28.01
29733;BME280;16643;43.158;25.302;2022-09-09T10:58:48;97902.56;;;34.81;27.91
29733;BME280;16643;43.158;25.302;2022-09-09T11:01:44;97915.88;;;34.89;27.34
29733;BME280;16643;43.158;25.302;2022-09-09T11:04:22;97909.88;;;34.87;28.04
29733;BME280;16643;43.158;25.302;2022-09-09T11:06:54;97853.06;;;34.74;28.24
29733;BME280;16643;43.158;25.302;2022-09-09T11:09:30;97891.38;;;35.04;26.92
29733;BME280;16643;43.158;25.302;2022-09-09T11:12:00;97901.34;;;35.03;27.95
29733;BME280;16643;43.158;25.302;2022-09-09T11:17:12;97884.22;;;34.70;28.30
29733;BME280;16643;43.158;25.302;2022-09-09T11:19:41;97898.56;;;34.64;28.07
29733;BME280;16643;43.158;25.302;2022-09-09T11:33:00;97903.06;;;35.77;27.82
29733;BME280;16643;43.158;25.302;2022-09-09T11:35:39;97893.84;;;35.84;25.58
29733;BME280;16643;43.158;25.302;2022-09-09T11:38:15;97895.69;;;35.97;25.65
29733;BME280;16643;43.158;25.302;2022-09-09T11:40:44;97873.69;;;35.74;25.87
29733;BME280;16643;43.158;25.302;2022-09-09T11:43:26;97863.50;;;35.76;24.99
29733;BME280;16643;43.158;25.302;2022-09-09T11:45:58;97869.50;;;35.84;25.44
29733;BME280;16643;43.158;25.302;2022-09-09T11:48:33;97872.75;;;36.06;25.88
29733;BME280;16643;43.158;25.302;2022-09-09T11:51:10;97834.88;;;35.99;25.31
29733;BME280;16643;43.158;25.302;2022-09-09T11:53:48;97879.25;;;35.98;25.59
29733;BME280;16643;43.158;25.302;2022-09-09T11:59:27;97856.81;;;35.58;26.52
29733;BME280;16643;43.158;25.302;2022-09-09T12:01:55;97890.78;;;35.41;27.25
29733;BME280;16643;43.158;25.302;2022-09-09T12:06:51;97878.66;;;34.91;28.02
29733;BME280;16643;43.158;25.302;2022-09-09T12:11:48;97889.63;;;34.63;27.88
29733;BME280;16643;43.158;25.302;2022-09-09T12:17:21;97863.59;;;34.49;28.70
29733;BME280;16643;43.158;25.302;2022-09-09T12:19:48;97859.38;;;34.33;28.71
29733;BME280;16643;43.158;25.302;2022-09-09T12:25:59;97840.41;;;33.72;29.26
29733;BME280;16643;43.158;25.302;2022-09-09T12:28:54;97808.03;;;33.38;30.02
29733;BME280;16643;43.158;25.302;2022-09-09T12:31:29;97794.72;;;33.08;30.55
29733;BME280;16643;43.158;25.302;2022-09-09T12:34:28;97813.41;;;33.10;30.85
29733;BME280;16643;43.158;25.302;2022-09-09T12:36:55;97852.66;;;33.40;31.04
29733;BME280;16643;43.158;25.302;2022-09-09T12:40:04;97838.25;;;33.27;31.11
29733;BME280;16643;43.158;25.302;2022-09-09T12:42:23;97863.59;;;33.32;31.04
29733;BME280;16643;43.158;25.302;2022-09-09T12:44:58;97801.19;;;32.86;31.06
29733;BME280;16643;43.158;25.302;2022-09-09T12:50:03;97841.59;;;32.86;31.84
29733;BME280;16643;43.158;25.302;2022-09-09T12:52:35;97821.91;;;32.64;31.76
29733;BME280;16643;43.158;25.302;2022-09-09T12:55:05;97826.03;;;32.60;32.17
29733;BME280;16643;43.158;25.302;2022-09-09T12:57:38;97815.88;;;32.62;32.49
29733;BME280;16643;43.158;25.302;2022-09-09T13:00:16;97796.78;;;32.36;31.96
29733;BME280;16643;43.158;25.302;2022-09-09T13:03:03;97807.03;;;32.47;32.50
29733;BME280;16643;43.158;25.302;2022-09-09T13:05:40;97816.88;;;32.40;33.32
29733;BME280;16643;43.158;25.302;2022-09-09T13:08:09;97852.31;;;32.58;32.97
29733;BME280;16643;43.158;25.302;2022-09-09T13:10:48;97842.41;;;32.44;33.36
29733;BME280;16643;43.158;25.302;2022-09-09T13:13:25;97835.03;;;32.31;33.65
29733;BME280;16643;43.158;25.302;2022-09-09T13:15:56;97854.50;;;32.48;34.04
29733;BME280;16643;43.158;25.302;2022-09-09T13:18:28;97828.66;;;32.18;33.83
29733;BME280;16643;43.158;25.302;2022-09-09T13:20:55;97833.47;;;32.07;33.63
29733;BME280;16643;43.158;25.302;2022-09-09T13:23:28;97800.34;;;31.71;34.02
29733;BME280;16643;43.158;25.302;2022-09-09T13:26:19;97845.38;;;31.98;33.83
29733;BME280;16643;43.158;25.302;2022-09-09T13:28:49;97790.03;;;31.60;33.58
29733;BME280;16643;43.158;25.302;2022-09-09T13:33:49;97807.63;;;31.62;34.00
29733;BME280;16643;43.158;25.302;2022-09-09T13:36:15;97838.91;;;31.78;34.58
29733;BME280;16643;43.158;25.302;2022-09-09T13:41:20;97828.88;;;31.57;34.78
29733;BME280;16643;43.158;25.302;2022-09-09T13:43:47;97826.38;;;31.56;35.28
29733;BME280;16643;43.158;25.302;2022-09-09T13:49:29;97804.03;;;31.40;35.18
29733;BME280;16643;43.158;25.302;2022-09-09T13:51:50;97846.22;;;31.55;35.12
29733;BME280;16643;43.158;25.302;2022-09-09T13:54:20;97824.78;;;31.32;35.88
29733;BME280;16643;43.158;25.302;2022-09-09T13:56:46;97807.47;;;31.34;35.69
29733;BME280;16643;43.158;25.302;2022-09-09T13:59:15;97805.16;;;31.31;35.62
29733;BME280;16643;43.158;25.302;2022-09-09T14:01:41;97793.84;;;31.21;35.86
29733;BME280;16643;43.158;25.302;2022-09-09T14:04:07;97800.75;;;31.16;36.28
29733;BME280;16643;43.158;25.302;2022-09-09T14:06:34;97779.31;;;30.93;36.10
29733;BME280;16643;43.158;25.302;2022-09-09T14:09:11;97831.28;;;31.23;36.50
29733;BME280;16643;43.158;25.302;2022-09-09T14:11:38;97844.81;;;31.15;36.27
29733;BME280;16643;43.158;25.302;2022-09-09T14:14:04;97797.25;;;30.78;36.23
29733;BME280;16643;43.158;25.302;2022-09-09T14:16:30;97747.44;;;30.52;36.41
29733;BME280;16643;43.158;25.302;2022-09-09T14:18:56;97800.44;;;30.81;36.41
29733;BME280;16643;43.158;25.302;2022-09-09T14:21:23;97787.97;;;30.65;36.54
29733;BME280;16643;43.158;25.302;2022-09-09T14:23:49;97830.59;;;30.83;37.08
29733;BME280;16643;43.158;25.302;2022-09-09T14:26:14;97787.09;;;30.42;37.33
29733;BME280;16643;43.158;25.302;2022-09-09T14:28:40;97808.22;;;30.45;37.37
29733;BME280;16643;43.158;25.302;2022-09-09T14:31:07;97811.63;;;30.39;37.81
29733;BME280;16643;43.158;25.302;2022-09-09T14:33:33;97779.94;;;30.12;38.16
29733;BME280;16643;43.158;25.302;2022-09-09T14:36:00;97783.94;;;30.16;38.46
29733;BME280;16643;43.158;25.302;2022-09-09T14:38:32;97798.34;;;30.15;38.53
29733;BME280;16643;43.158;25.302;2022-09-09T14:41:02;97808.56;;;30.19;38.84
29733;BME280;16643;43.158;25.302;2022-09-09T14:43:29;97821.63;;;30.22;38.79
29733;BME280;16643;43.158;25.302;2022-09-09T14:45:55;97795.16;;;29.88;39.37
29733;BME280;16643;43.158;25.302;2022-09-09T14:48:21;97839.13;;;30.10;40.33
29733;BME280;16643;43.158;25.302;2022-09-09T14:50:46;97820.28;;;29.95;40.16
29733;BME280;16643;43.158;25.302;2022-09-09T14:53:12;97793.06;;;29.68;40.41
29733;BME280;16643;43.158;25.302;2022-09-09T14:55:38;97781.56;;;29.51;40.59
29733;BME280;16643;43.158;25.302;2022-09-09T14:58:04;97806.09;;;29.71;40.29
29733;BME280;16643;43.158;25.302;2022-09-09T15:00:31;97806.81;;;29.65;40.90
29733;BME280;16643;43.158;25.302;2022-09-09T15:02:57;97829.06;;;29.73;40.95
29733;BME280;16643;43.158;25.302;2022-09-09T15:05:23;97844.75;;;29.84;40.96